Terminal Aerodrome Forecast
Issued by NWS Springfield, MO

Home | Current Version | Previous Version | Text Only | Print | Product List | Glossary On
Versions: 1 2 3 4 5 6 7 8 9 10 11 12
244
FTUS43 KSGF 102335
TAFSGF
TAF
KSGF 102335Z 1100/1124 15016G23KT P6SM OVC050
     FM110700 15015G22KT P6SM OVC040 WS020/20040KT
     FM111500 16015G22KT P6SM BKN025 OVC050
     FM111800 17013KT 6SM -DZ BR SCT007 OVC015=

USA.gov is the U.S. government's official web portal to all federal, state and local government web resources and services.